sensor_id;sensor_type;location;lat;lon;timestamp;temperature;humidity
79055;DHT22;68452;47.186;-1.528;2023-04-25T00:01:45;10.90;64.90
79055;DHT22;68452;47.186;-1.528;2023-04-25T00:04:11;10.90;65.00
79055;DHT22;68452;47.186;-1.528;2023-04-25T00:06:37;10.90;64.90
79055;DHT22;68452;47.186;-1.528;2023-04-25T00:09:04;10.90;65.10
79055;DHT22;68452;47.186;-1.528;2023-04-25T00:11:33;10.80;65.10
79055;DHT22;68452;47.186;-1.528;2023-04-25T00:13:59;10.80;65.10
79055;DHT22;68452;47.186;-1.528;2023-04-25T00:16:28;10.80;65.00
79055;DHT22;68452;47.186;-1.528;2023-04-25T00:18:55;10.70;65.20
79055;DHT22;68452;47.186;-1.528;2023-04-25T00:21:21;10.70;65.30
79055;DHT22;68452;47.186;-1.528;2023-04-25T00:23:47;10.70;65.40
79055;DHT22;68452;47.186;-1.528;2023-04-25T00:26:13;10.60;65.60
79055;DHT22;68452;47.186;-1.528;2023-04-25T00:28:39;10.60;65.60
79055;DHT22;68452;47.186;-1.528;2023-04-25T00:31:06;10.60;65.90
79055;DHT22;68452;47.186;-1.528;2023-04-25T00:33:32;10.50;66.00
79055;DHT22;68452;47.186;-1.528;2023-04-25T00:35:58;10.50;65.90
79055;DHT22;68452;47.186;-1.528;2023-04-25T00:38:24;10.50;66.20
79055;DHT22;68452;47.186;-1.528;2023-04-25T00:40:50;10.50;66.00
79055;DHT22;68452;47.186;-1.528;2023-04-25T00:43:16;10.50;65.90
79055;DHT22;68452;47.186;-1.528;2023-04-25T00:45:43;10.40;65.70
79055;DHT22;68452;47.186;-1.528;2023-04-25T00:48:09;10.50;65.60
79055;DHT22;68452;47.186;-1.528;2023-04-25T00:50:35;10.40;65.90
79055;DHT22;68452;47.186;-1.528;2023-04-25T00:53:02;10.30;66.10
79055;DHT22;68452;47.186;-1.528;2023-04-25T00:55:29;10.30;66.10
79055;DHT22;68452;47.186;-1.528;2023-04-25T00:57:57;10.30;66.20
79055;DHT22;68452;47.186;-1.528;2023-04-25T01:00:24;10.20;66.30
79055;DHT22;68452;47.186;-1.528;2023-04-25T01:02:50;10.20;66.30
79055;DHT22;68452;47.186;-1.528;2023-04-25T01:05:16;10.20;66.20
79055;DHT22;68452;47.186;-1.528;2023-04-25T01:07:44;10.20;66.10
79055;DHT22;68452;47.186;-1.528;2023-04-25T01:10:11;10.20;65.90
79055;DHT22;68452;47.186;-1.528;2023-04-25T01:12:37;10.20;66.00
79055;DHT22;68452;47.186;-1.528;2023-04-25T01:15:03;10.20;66.10
79055;DHT22;68452;47.186;-1.528;2023-04-25T01:17:29;10.20;66.00
79055;DHT22;68452;47.186;-1.528;2023-04-25T01:19:56;10.10;66.20
79055;DHT22;68452;47.186;-1.528;2023-04-25T01:22:22;10.10;66.20
79055;DHT22;68452;47.186;-1.528;2023-04-25T01:24:48;10.10;66.10
79055;DHT22;68452;47.186;-1.528;2023-04-25T01:27:15;10.10;66.00
79055;DHT22;68452;47.186;-1.528;2023-04-25T01:29:41;10.00;66.00
79055;DHT22;68452;47.186;-1.528;2023-04-25T01:32:07;9.90;66.30
79055;DHT22;68452;47.186;-1.528;2023-04-25T01:34:34;10.00;66.40
79055;DHT22;68452;47.186;-1.528;2023-04-25T01:37:00;9.90;66.30
79055;DHT22;68452;47.186;-1.528;2023-04-25T01:39:29;9.90;66.40
79055;DHT22;68452;47.186;-1.528;2023-04-25T01:41:55;9.90;66.50
79055;DHT22;68452;47.186;-1.528;2023-04-25T01:44:21;9.80;66.40
79055;DHT22;68452;47.186;-1.528;2023-04-25T01:46:47;9.80;66.30
79055;DHT22;68452;47.186;-1.528;2023-04-25T01:49:13;9.80;66.20
79055;DHT22;68452;47.186;-1.528;2023-04-25T01:51:39;9.80;66.20
79055;DHT22;68452;47.186;-1.528;2023-04-25T01:54:05;9.80;66.10
79055;DHT22;68452;47.186;-1.528;2023-04-25T01:56:32;9.70;65.90
79055;DHT22;68452;47.186;-1.528;2023-04-25T01:58:58;9.70;65.80
79055;DHT22;68452;47.186;-1.528;2023-04-25T02:01:24;9.70;66.00
79055;DHT22;68452;47.186;-1.528;2023-04-25T02:03:50;9.60;66.30
79055;DHT22;68452;47.186;-1.528;2023-04-25T02:06:16;9.60;66.20
79055;DHT22;68452;47.186;-1.528;2023-04-25T02:08:42;9.60;66.20
79055;DHT22;68452;47.186;-1.528;2023-04-25T02:11:08;9.50;66.10
79055;DHT22;68452;47.186;-1.528;2023-04-25T02:13:34;9.60;66.00
79055;DHT22;68452;47.186;-1.528;2023-04-25T02:16:00;9.50;66.20
79055;DHT22;68452;47.186;-1.528;2023-04-25T02:18:26;9.50;66.30
79055;DHT22;68452;47.186;-1.528;2023-04-25T02:20:52;9.40;66.20
79055;DHT22;68452;47.186;-1.528;2023-04-25T02:23:18;9.40;66.20
79055;DHT22;68452;47.186;-1.528;2023-04-25T02:25:44;9.40;66.30
79055;DHT22;68452;47.186;-1.528;2023-04-25T02:28:11;9.40;66.40
79055;DHT22;68452;47.186;-1.528;2023-04-25T02:30:37;9.40;66.20
79055;DHT22;68452;47.186;-1.528;2023-04-25T02:33:03;9.40;66.20
79055;DHT22;68452;47.186;-1.528;2023-04-25T02:35:29;9.40;66.30
79055;DHT22;68452;47.186;-1.528;2023-04-25T02:37:55;9.40;66.30
79055;DHT22;68452;47.186;-1.528;2023-04-25T02:40:20;9.40;66.20
79055;DHT22;68452;47.186;-1.528;2023-04-25T02:42:46;9.30;66.30
79055;DHT22;68452;47.186;-1.528;2023-04-25T02:45:12;9.30;66.40
79055;DHT22;68452;47.186;-1.528;2023-04-25T02:47:39;9.30;66.40
79055;DHT22;68452;47.186;-1.528;2023-04-25T02:50:05;9.30;66.20
79055;DHT22;68452;47.186;-1.528;2023-04-25T02:52:31;9.20;66.50
79055;DHT22;68452;47.186;-1.528;2023-04-25T02:54:57;9.30;66.40
79055;DHT22;68452;47.186;-1.528;2023-04-25T02:57:23;9.20;66.60
79055;DHT22;68452;47.186;-1.528;2023-04-25T02:59:49;9.30;66.40
79055;DHT22;68452;47.186;-1.528;2023-04-25T03:02:15;9.30;66.60
79055;DHT22;68452;47.186;-1.528;2023-04-25T03:04:41;9.20;66.60
79055;DHT22;68452;47.186;-1.528;2023-04-25T03:07:07;9.20;66.40
79055;DHT22;68452;47.186;-1.528;2023-04-25T03:09:33;9.20;66.60
79055;DHT22;68452;47.186;-1.528;2023-04-25T03:11:59;9.20;66.40
79055;DHT22;68452;47.186;-1.528;2023-04-25T03:14:25;9.20;66.30
79055;DHT22;68452;47.186;-1.528;2023-04-25T03:16:51;9.10;66.70
79055;DHT22;68452;47.186;-1.528;2023-04-25T03:19:17;9.10;66.30
79055;DHT22;68452;47.186;-1.528;2023-04-25T03:21:44;9.10;66.40
79055;DHT22;68452;47.186;-1.528;2023-04-25T03:24:10;9.10;66.50
79055;DHT22;68452;47.186;-1.528;2023-04-25T03:26:39;9.10;66.50
79055;DHT22;68452;47.186;-1.528;2023-04-25T03:29:05;9.10;66.40
79055;DHT22;68452;47.186;-1.528;2023-04-25T03:31:31;9.10;66.40
79055;DHT22;68452;47.186;-1.528;2023-04-25T03:33:57;9.00;66.40
79055;DHT22;68452;47.186;-1.528;2023-04-25T03:36:23;9.00;66.70
79055;DHT22;68452;47.186;-1.528;2023-04-25T03:38:48;9.00;66.70
79055;DHT22;68452;47.186;-1.528;2023-04-25T03:41:15;9.00;66.70
79055;DHT22;68452;47.186;-1.528;2023-04-25T03:43:41;9.00;66.60
79055;DHT22;68452;47.186;-1.528;2023-04-25T03:46:07;9.00;66.50
79055;DHT22;68452;47.186;-1.528;2023-04-25T03:48:33;9.10;66.50
79055;DHT22;68452;47.186;-1.528;2023-04-25T03:50:59;9.10;66.70
79055;DHT22;68452;47.186;-1.528;2023-04-25T03:53:25;9.00;66.80
79055;DHT22;68452;47.186;-1.528;2023-04-25T03:55:52;9.10;66.80
79055;DHT22;68452;47.186;-1.528;2023-04-25T03:58:18;9.10;66.60
79055;DHT22;68452;47.186;-1.528;2023-04-25T04:00:45;9.00;66.80
79055;DHT22;68452;47.186;-1.528;2023-04-25T04:03:11;9.10;66.90
79055;DHT22;68452;47.186;-1.528;2023-04-25T04:05:37;9.00;67.00
79055;DHT22;68452;47.186;-1.528;2023-04-25T04:08:06;9.10;67.00
79055;DHT22;68452;47.186;-1.528;2023-04-25T04:10:32;9.10;67.10
79055;DHT22;68452;47.186;-1.528;2023-04-25T04:12:58;9.10;66.90
79055;DHT22;68452;47.186;-1.528;2023-04-25T04:15:24;9.10;66.70
79055;DHT22;68452;47.186;-1.528;2023-04-25T04:17:50;9.00;67.00
79055;DHT22;68452;47.186;-1.528;2023-04-25T04:20:15;9.10;66.90
79055;DHT22;68452;47.186;-1.528;2023-04-25T04:22:41;9.00;67.00
79055;DHT22;68452;47.186;-1.528;2023-04-25T04:25:07;9.00;66.80
79055;DHT22;68452;47.186;-1.528;2023-04-25T04:27:33;9.00;66.60
79055;DHT22;68452;47.186;-1.528;2023-04-25T04:29:59;8.90;66.60
79055;DHT22;68452;47.186;-1.528;2023-04-25T04:32:25;8.80;66.70
79055;DHT22;68452;47.186;-1.528;2023-04-25T04:34:53;8.80;66.80
79055;DHT22;68452;47.186;-1.528;2023-04-25T04:37:20;8.80;66.90
79055;DHT22;68452;47.186;-1.528;2023-04-25T04:39:46;8.80;66.60
79055;DHT22;68452;47.186;-1.528;2023-04-25T04:42:12;8.70;66.90
79055;DHT22;68452;47.186;-1.528;2023-04-25T04:44:38;8.80;66.90
79055;DHT22;68452;47.186;-1.528;2023-04-25T04:47:05;8.70;66.90
79055;DHT22;68452;47.186;-1.528;2023-04-25T04:49:32;8.70;66.80
79055;DHT22;68452;47.186;-1.528;2023-04-25T04:51:58;8.70;66.70
79055;DHT22;68452;47.186;-1.528;2023-04-25T04:54:25;8.70;66.50
79055;DHT22;68452;47.186;-1.528;2023-04-25T04:56:52;8.70;66.40
79055;DHT22;68452;47.186;-1.528;2023-04-25T04:59:18;8.60;66.40
79055;DHT22;68452;47.186;-1.528;2023-04-25T05:01:44;8.60;66.30
79055;DHT22;68452;47.186;-1.528;2023-04-25T05:04:10;8.60;66.30
79055;DHT22;68452;47.186;-1.528;2023-04-25T05:06:35;8.60;66.30
79055;DHT22;68452;47.186;-1.528;2023-04-25T05:09:01;8.50;66.30
79055;DHT22;68452;47.186;-1.528;2023-04-25T05:11:27;8.50;66.40
79055;DHT22;68452;47.186;-1.528;2023-04-25T05:13:53;8.50;66.60
79055;DHT22;68452;47.186;-1.528;2023-04-25T05:16:20;8.50;66.50
79055;DHT22;68452;47.186;-1.528;2023-04-25T05:18:46;8.60;66.50
79055;DHT22;68452;47.186;-1.528;2023-04-25T05:21:12;8.60;66.80
79055;DHT22;68452;47.186;-1.528;2023-04-25T05:23:38;8.60;67.10
79055;DHT22;68452;47.186;-1.528;2023-04-25T05:26:04;8.60;67.20
79055;DHT22;68452;47.186;-1.528;2023-04-25T05:28:31;8.60;67.30
79055;DHT22;68452;47.186;-1.528;2023-04-25T05:30:56;8.70;67.30
79055;DHT22;68452;47.186;-1.528;2023-04-25T05:33:22;8.70;67.30
79055;DHT22;68452;47.186;-1.528;2023-04-25T05:35:48;8.70;67.30
79055;DHT22;68452;47.186;-1.528;2023-04-25T05:38:14;8.80;67.40
79055;DHT22;68452;47.186;-1.528;2023-04-25T05:40:40;8.90;67.40
79055;DHT22;68452;47.186;-1.528;2023-04-25T05:43:06;9.00;67.40
79055;DHT22;68452;47.186;-1.528;2023-04-25T05:45:32;9.00;67.30
79055;DHT22;68452;47.186;-1.528;2023-04-25T05:47:58;9.10;67.40
79055;DHT22;68452;47.186;-1.528;2023-04-25T05:50:24;9.10;67.50
79055;DHT22;68452;47.186;-1.528;2023-04-25T05:52:50;9.20;67.30
79055;DHT22;68452;47.186;-1.528;2023-04-25T05:55:16;9.20;67.50
79055;DHT22;68452;47.186;-1.528;2023-04-25T05:57:42;9.30;67.50
79055;DHT22;68452;47.186;-1.528;2023-04-25T06:00:13;9.40;67.60
79055;DHT22;68452;47.186;-1.528;2023-04-25T06:02:40;9.40;67.60
79055;DHT22;68452;47.186;-1.528;2023-04-25T06:05:06;9.50;67.70
79055;DHT22;68452;47.186;-1.528;2023-04-25T06:07:32;9.50;67.70
79055;DHT22;68452;47.186;-1.528;2023-04-25T06:09:58;9.60;67.80
79055;DHT22;68452;47.186;-1.528;2023-04-25T06:12:25;9.60;67.70
79055;DHT22;68452;47.186;-1.528;2023-04-25T06:14:51;9.70;67.80
79055;DHT22;68452;47.186;-1.528;2023-04-25T06:17:17;9.80;67.90
79055;DHT22;68452;47.186;-1.528;2023-04-25T06:19:42;9.90;67.90
79055;DHT22;68452;47.186;-1.528;2023-04-25T06:22:08;9.90;67.80
79055;DHT22;68452;47.186;-1.528;2023-04-25T06:24:34;10.00;67.90
79055;DHT22;68452;47.186;-1.528;2023-04-25T06:27:00;10.10;67.90
79055;DHT22;68452;47.186;-1.528;2023-04-25T06:29:26;10.10;67.70
79055;DHT22;68452;47.186;-1.528;2023-04-25T06:31:52;10.20;67.90
79055;DHT22;68452;47.186;-1.528;2023-04-25T06:34:18;10.20;68.20
79055;DHT22;68452;47.186;-1.528;2023-04-25T06:36:44;10.30;67.70
79055;DHT22;68452;47.186;-1.528;2023-04-25T06:39:10;10.30;67.70
79055;DHT22;68452;47.186;-1.528;2023-04-25T06:41:36;10.30;67.70
79055;DHT22;68452;47.186;-1.528;2023-04-25T06:44:02;10.40;67.90
79055;DHT22;68452;47.186;-1.528;2023-04-25T06:46:28;10.40;68.00
79055;DHT22;68452;47.186;-1.528;2023-04-25T06:48:54;10.60;67.80
79055;DHT22;68452;47.186;-1.528;2023-04-25T06:51:20;10.70;67.60
79055;DHT22;68452;47.186;-1.528;2023-04-25T06:53:46;10.80;67.30
79055;DHT22;68452;47.186;-1.528;2023-04-25T06:56:12;11.00;66.70
79055;DHT22;68452;47.186;-1.528;2023-04-25T06:58:38;11.00;66.00
79055;DHT22;68452;47.186;-1.528;2023-04-25T07:01:04;11.10;65.90
79055;DHT22;68452;47.186;-1.528;2023-04-25T07:03:29;11.20;65.70
79055;DHT22;68452;47.186;-1.528;2023-04-25T07:05:55;11.30;65.20
79055;DHT22;68452;47.186;-1.528;2023-04-25T07:08:21;11.30;65.30
79055;DHT22;68452;47.186;-1.528;2023-04-25T07:10:47;11.30;65.30
79055;DHT22;68452;47.186;-1.528;2023-04-25T07:13:13;11.40;65.30
79055;DHT22;68452;47.186;-1.528;2023-04-25T07:15:39;11.40;64.80
79055;DHT22;68452;47.186;-1.528;2023-04-25T07:18:05;11.50;64.80
79055;DHT22;68452;47.186;-1.528;2023-04-25T07:20:30;11.50;65.00
79055;DHT22;68452;47.186;-1.528;2023-04-25T07:22:57;11.60;64.80
79055;DHT22;68452;47.186;-1.528;2023-04-25T07:25:22;11.60;64.20
79055;DHT22;68452;47.186;-1.528;2023-04-25T07:27:48;11.70;64.20
79055;DHT22;68452;47.186;-1.528;2023-04-25T07:30:14;11.70;64.10
79055;DHT22;68452;47.186;-1.528;2023-04-25T07:32:40;11.80;63.70
79055;DHT22;68452;47.186;-1.528;2023-04-25T07:35:06;11.90;63.10
79055;DHT22;68452;47.186;-1.528;2023-04-25T07:37:34;11.90;63.20
79055;DHT22;68452;47.186;-1.528;2023-04-25T07:40:00;12.00;62.90
79055;DHT22;68452;47.186;-1.528;2023-04-25T07:42:25;12.10;62.80
79055;DHT22;68452;47.186;-1.528;2023-04-25T07:44:51;12.10;63.20
79055;DHT22;68452;47.186;-1.528;2023-04-25T07:47:17;12.10;62.20
79055;DHT22;68452;47.186;-1.528;2023-04-25T07:49:44;12.20;62.60
79055;DHT22;68452;47.186;-1.528;2023-04-25T07:52:11;12.20;61.90
79055;DHT22;68452;47.186;-1.528;2023-04-25T07:54:37;12.30;61.70
79055;DHT22;68452;47.186;-1.528;2023-04-25T07:57:02;12.30;61.80
79055;DHT22;68452;47.186;-1.528;2023-04-25T07:59:28;12.30;61.60
79055;DHT22;68452;47.186;-1.528;2023-04-25T08:01:55;12.40;61.30
79055;DHT22;68452;47.186;-1.528;2023-04-25T08:04:23;12.50;61.20
79055;DHT22;68452;47.186;-1.528;2023-04-25T08:06:50;12.50;60.60
79055;DHT22;68452;47.186;-1.528;2023-04-25T08:09:18;12.50;60.30
79055;DHT22;68452;47.186;-1.528;2023-04-25T08:11:44;12.60;60.50
79055;DHT22;68452;47.186;-1.528;2023-04-25T08:14:10;12.80;60.60
79055;DHT22;68452;47.186;-1.528;2023-04-25T08:16:36;12.80;60.60
79055;DHT22;68452;47.186;-1.528;2023-04-25T08:19:02;13.00;60.20
79055;DHT22;68452;47.186;-1.528;2023-04-25T08:21:28;13.00;59.80
79055;DHT22;68452;47.186;-1.528;2023-04-25T08:23:54;13.10;59.10
79055;DHT22;68452;47.186;-1.528;2023-04-25T08:26:20;13.20;59.30
79055;DHT22;68452;47.186;-1.528;2023-04-25T08:28:46;13.40;59.20
79055;DHT22;68452;47.186;-1.528;2023-04-25T08:31:12;13.40;58.60
79055;DHT22;68452;47.186;-1.528;2023-04-25T08:33:38;13.40;57.90
79055;DHT22;68452;47.186;-1.528;2023-04-25T08:36:04;13.40;58.40
79055;DHT22;68452;47.186;-1.528;2023-04-25T08:38:29;13.40;57.90
79055;DHT22;68452;47.186;-1.528;2023-04-25T08:40:56;13.40;57.70
79055;DHT22;68452;47.186;-1.528;2023-04-25T08:43:23;13.40;58.30
79055;DHT22;68452;47.186;-1.528;2023-04-25T08:45:53;13.40;58.10
79055;DHT22;68452;47.186;-1.528;2023-04-25T08:48:21;13.40;58.20
79055;DHT22;68452;47.186;-1.528;2023-04-25T08:50:53;13.50;58.30
79055;DHT22;68452;47.186;-1.528;2023-04-25T08:53:25;13.60;57.70
79055;DHT22;68452;47.186;-1.528;2023-04-25T08:55:53;13.70;57.80
79055;DHT22;68452;47.186;-1.528;2023-04-25T08:58:20;13.80;57.90
79055;DHT22;68452;47.186;-1.528;2023-04-25T09:00:47;13.90;57.80
79055;DHT22;68452;47.186;-1.528;2023-04-25T09:03:13;14.00;57.30
79055;DHT22;68452;47.186;-1.528;2023-04-25T09:05:41;13.90;56.60
79055;DHT22;68452;47.186;-1.528;2023-04-25T09:08:07;13.90;56.80
79055;DHT22;68452;47.186;-1.528;2023-04-25T09:10:34;14.00;56.90
79055;DHT22;68452;47.186;-1.528;2023-04-25T09:13:14;14.20;57.00
79055;DHT22;68452;47.186;-1.528;2023-04-25T09:15:54;14.30;56.10
79055;DHT22;68452;47.186;-1.528;2023-04-25T09:18:30;14.40;55.90
79055;DHT22;68452;47.186;-1.528;2023-04-25T09:21:08;14.40;55.60
79055;DHT22;68452;47.186;-1.528;2023-04-25T09:23:46;14.30;54.70
79055;DHT22;68452;47.186;-1.528;2023-04-25T09:26:17;14.30;55.50
79055;DHT22;68452;47.186;-1.528;2023-04-25T09:28:43;14.30;55.60
79055;DHT22;68452;47.186;-1.528;2023-04-25T09:31:11;14.30;55.20
79055;DHT22;68452;47.186;-1.528;2023-04-25T09:33:37;14.50;55.20
79055;DHT22;68452;47.186;-1.528;2023-04-25T09:36:08;14.50;55.10
79055;DHT22;68452;47.186;-1.528;2023-04-25T09:38:45;14.60;54.30
79055;DHT22;68452;47.186;-1.528;2023-04-25T09:41:11;14.70;54.70
79055;DHT22;68452;47.186;-1.528;2023-04-25T09:43:38;14.80;54.20
79055;DHT22;68452;47.186;-1.528;2023-04-25T09:46:09;14.90;54.60
79055;DHT22;68452;47.186;-1.528;2023-04-25T09:48:37;15.10;53.70
79055;DHT22;68452;47.186;-1.528;2023-04-25T09:51:10;15.00;52.00
79055;DHT22;68452;47.186;-1.528;2023-04-25T09:53:38;15.00;52.90
79055;DHT22;68452;47.186;-1.528;2023-04-25T09:56:06;15.20;52.40
79055;DHT22;68452;47.186;-1.528;2023-04-25T09:58:33;15.20;52.60
79055;DHT22;68452;47.186;-1.528;2023-04-25T10:01:01;15.30;52.30
79055;DHT22;68452;47.186;-1.528;2023-04-25T10:03:30;15.20;51.30
79055;DHT22;68452;47.186;-1.528;2023-04-25T10:06:00;15.40;52.30
79055;DHT22;68452;47.186;-1.528;2023-04-25T10:08:32;15.60;51.60
79055;DHT22;68452;47.186;-1.528;2023-04-25T10:11:06;15.70;51.80
79055;DHT22;68452;47.186;-1.528;2023-04-25T10:13:34;15.70;51.10
79055;DHT22;68452;47.186;-1.528;2023-04-25T10:16:02;15.60;50.50
79055;DHT22;68452;47.186;-1.528;2023-04-25T10:18:30;15.70;50.40
79055;DHT22;68452;47.186;-1.528;2023-04-25T10:21:00;15.60;49.90
79055;DHT22;68452;47.186;-1.528;2023-04-25T10:23:27;15.60;49.70
79055;DHT22;68452;47.186;-1.528;2023-04-25T10:25:55;15.60;50.30
79055;DHT22;68452;47.186;-1.528;2023-04-25T10:28:21;15.50;49.60
79055;DHT22;68452;47.186;-1.528;2023-04-25T10:31:01;15.50;50.10
79055;DHT22;68452;47.186;-1.528;2023-04-25T10:36:13;15.70;49.60
79055;DHT22;68452;47.186;-1.528;2023-04-25T10:38:42;15.80;48.20
79055;DHT22;68452;47.186;-1.528;2023-04-25T10:41:09;15.80;47.50
79055;DHT22;68452;47.186;-1.528;2023-04-25T10:46:25;16.00;48.10
79055;DHT22;68452;47.186;-1.528;2023-04-25T10:51:20;16.20;48.00
79055;DHT22;68452;47.186;-1.528;2023-04-25T10:53:56;16.30;47.60
79055;DHT22;68452;47.186;-1.528;2023-04-25T10:56:25;16.20;47.30
79055;DHT22;68452;47.186;-1.528;2023-04-25T10:58:51;16.20;46.80
79055;DHT22;68452;47.186;-1.528;2023-04-25T11:01:24;16.20;46.90
79055;DHT22;68452;47.186;-1.528;2023-04-25T11:03:57;16.30;47.10
79055;DHT22;68452;47.186;-1.528;2023-04-25T11:06:33;16.30;46.20
79055;DHT22;68452;47.186;-1.528;2023-04-25T11:09:03;16.40;46.10
79055;DHT22;68452;47.186;-1.528;2023-04-25T11:11:36;16.60;45.30
79055;DHT22;68452;47.186;-1.528;2023-04-25T11:14:02;16.50;44.80
79055;DHT22;68452;47.186;-1.528;2023-04-25T11:16:28;16.50;44.40
79055;DHT22;68452;47.186;-1.528;2023-04-25T11:18:57;16.70;44.60
79055;DHT22;68452;47.186;-1.528;2023-04-25T11:21:25;16.80;44.80
79055;DHT22;68452;47.186;-1.528;2023-04-25T11:23:57;16.80;45.00
79055;DHT22;68452;47.186;-1.528;2023-04-25T11:26:24;16.80;44.30
79055;DHT22;68452;47.186;-1.528;2023-04-25T11:28:50;16.80;44.90
79055;DHT22;68452;47.186;-1.528;2023-04-25T11:31:16;17.10;45.40
79055;DHT22;68452;47.186;-1.528;2023-04-25T11:33:45;17.20;44.10
79055;DHT22;68452;47.186;-1.528;2023-04-25T11:36:12;17.40;44.10
79055;DHT22;68452;47.186;-1.528;2023-04-25T11:38:37;17.50;42.80
79055;DHT22;68452;47.186;-1.528;2023-04-25T11:41:03;17.40;42.50
79055;DHT22;68452;47.186;-1.528;2023-04-25T11:43:29;17.30;42.40
79055;DHT22;68452;47.186;-1.528;2023-04-25T11:45:55;17.50;42.60
79055;DHT22;68452;47.186;-1.528;2023-04-25T11:48:21;17.80;41.70
79055;DHT22;68452;47.186;-1.528;2023-04-25T11:50:47;18.00;41.80
79055;DHT22;68452;47.186;-1.528;2023-04-25T11:53:13;18.10;40.90
79055;DHT22;68452;47.186;-1.528;2023-04-25T11:55:39;18.20;41.80
79055;DHT22;68452;47.186;-1.528;2023-04-25T11:58:06;18.10;40.60
79055;DHT22;68452;47.186;-1.528;2023-04-25T12:00:32;17.90;41.10
79055;DHT22;68452;47.186;-1.528;2023-04-25T12:02:58;17.60;42.00
79055;DHT22;68452;47.186;-1.528;2023-04-25T12:05:27;17.40;42.10
79055;DHT22;68452;47.186;-1.528;2023-04-25T12:07:53;17.20;42.90
79055;DHT22;68452;47.186;-1.528;2023-04-25T12:10:19;17.20;42.80
79055;DHT22;68452;47.186;-1.528;2023-04-25T12:12:46;17.10;43.10
79055;DHT22;68452;47.186;-1.528;2023-04-25T12:15:23;17.00;44.70
79055;DHT22;68452;47.186;-1.528;2023-04-25T12:17:52;17.10;44.60
79055;DHT22;68452;47.186;-1.528;2023-04-25T12:20:20;17.10;44.70
79055;DHT22;68452;47.186;-1.528;2023-04-25T12:22:49;17.20;44.50
79055;DHT22;68452;47.186;-1.528;2023-04-25T12:25:34;17.30;43.90
79055;DHT22;68452;47.186;-1.528;2023-04-25T12:28:20;17.30;44.80
79055;DHT22;68452;47.186;-1.528;2023-04-25T12:33:18;17.60;44.20
79055;DHT22;68452;47.186;-1.528;2023-04-25T12:35:44;17.60;43.30
79055;DHT22;68452;47.186;-1.528;2023-04-25T12:38:11;17.40;42.90
79055;DHT22;68452;47.186;-1.528;2023-04-25T12:40:36;17.50;43.60
79055;DHT22;68452;47.186;-1.528;2023-04-25T12:43:02;17.70;42.80
79055;DHT22;68452;47.186;-1.528;2023-04-25T12:45:28;17.70;44.10
79055;DHT22;68452;47.186;-1.528;2023-04-25T12:47:54;17.70;42.70
79055;DHT22;68452;47.186;-1.528;2023-04-25T12:50:20;17.80;43.00
79055;DHT22;68452;47.186;-1.528;2023-04-25T12:52:46;18.10;43.10
79055;DHT22;68452;47.186;-1.528;2023-04-25T12:55:15;18.40;42.70
79055;DHT22;68452;47.186;-1.528;2023-04-25T12:57:41;18.50;42.00
79055;DHT22;68452;47.186;-1.528;2023-04-25T13:00:07;18.30;42.10
79055;DHT22;68452;47.186;-1.528;2023-04-25T13:02:35;18.20;42.20
79055;DHT22;68452;47.186;-1.528;2023-04-25T13:05:01;18.00;41.70
79055;DHT22;68452;47.186;-1.528;2023-04-25T13:07:27;17.80;41.20
79055;DHT22;68452;47.186;-1.528;2023-04-25T13:09:53;17.50;41.10
79055;DHT22;68452;47.186;-1.528;2023-04-25T13:12:18;17.50;41.50
79055;DHT22;68452;47.186;-1.528;2023-04-25T13:14:44;17.50;41.10
79055;DHT22;68452;47.186;-1.528;2023-04-25T13:17:10;17.40;40.20
79055;DHT22;68452;47.186;-1.528;2023-04-25T13:19:36;17.30;40.50
79055;DHT22;68452;47.186;-1.528;2023-04-25T13:22:04;17.20;40.90
79055;DHT22;68452;47.186;-1.528;2023-04-25T13:24:30;17.20;41.70
79055;DHT22;68452;47.186;-1.528;2023-04-25T13:26:56;17.00;41.30
79055;DHT22;68452;47.186;-1.528;2023-04-25T13:29:22;17.00;42.20
79055;DHT22;68452;47.186;-1.528;2023-04-25T13:31:48;17.00;41.20
79055;DHT22;68452;47.186;-1.528;2023-04-25T13:34:14;17.00;41.30
79055;DHT22;68452;47.186;-1.528;2023-04-25T13:36:40;17.10;40.90
79055;DHT22;68452;47.186;-1.528;2023-04-25T13:39:06;17.10;40.20
79055;DHT22;68452;47.186;-1.528;2023-04-25T13:41:31;17.00;39.50
79055;DHT22;68452;47.186;-1.528;2023-04-25T13:43:57;16.80;40.10
79055;DHT22;68452;47.186;-1.528;2023-04-25T13:46:24;16.80;40.60
79055;DHT22;68452;47.186;-1.528;2023-04-25T13:48:49;16.60;40.70
79055;DHT22;68452;47.186;-1.528;2023-04-25T13:51:16;16.70;41.50
79055;DHT22;68452;47.186;-1.528;2023-04-25T13:53:43;16.80;40.30
79055;DHT22;68452;47.186;-1.528;2023-04-25T13:56:09;16.80;40.20
79055;DHT22;68452;47.186;-1.528;2023-04-25T13:58:37;17.10;39.90
79055;DHT22;68452;47.186;-1.528;2023-04-25T14:01:03;17.40;39.40
79055;DHT22;68452;47.186;-1.528;2023-04-25T14:03:30;17.40;38.60
79055;DHT22;68452;47.186;-1.528;2023-04-25T14:05:56;17.20;40.60
79055;DHT22;68452;47.186;-1.528;2023-04-25T14:08:22;17.20;40.10
79055;DHT22;68452;47.186;-1.528;2023-04-25T14:10:48;17.00;40.00
79055;DHT22;68452;47.186;-1.528;2023-04-25T14:13:14;17.00;39.70
79055;DHT22;68452;47.186;-1.528;2023-04-25T14:15:40;17.00;39.90
79055;DHT22;68452;47.186;-1.528;2023-04-25T14:18:06;17.00;40.00
79055;DHT22;68452;47.186;-1.528;2023-04-25T14:20:32;16.80;39.80
79055;DHT22;68452;47.186;-1.528;2023-04-25T14:22:58;16.90;41.20
79055;DHT22;68452;47.186;-1.528;2023-04-25T14:25:24;16.90;41.10
79055;DHT22;68452;47.186;-1.528;2023-04-25T14:27:50;16.90;41.10
79055;DHT22;68452;47.186;-1.528;2023-04-25T14:30:20;17.00;41.90
79055;DHT22;68452;47.186;-1.528;2023-04-25T14:32:48;17.20;41.30
79055;DHT22;68452;47.186;-1.528;2023-04-25T14:35:15;17.20;41.00
79055;DHT22;68452;47.186;-1.528;2023-04-25T14:37:41;17.30;40.70
79055;DHT22;68452;47.186;-1.528;2023-04-25T14:40:07;17.20;41.10
79055;DHT22;68452;47.186;-1.528;2023-04-25T14:42:39;17.30;40.50
79055;DHT22;68452;47.186;-1.528;2023-04-25T14:45:06;17.40;40.60
79055;DHT22;68452;47.186;-1.528;2023-04-25T14:47:33;17.30;39.10
79055;DHT22;68452;47.186;-1.528;2023-04-25T14:49:59;17.30;39.00
79055;DHT22;68452;47.186;-1.528;2023-04-25T14:52:28;17.20;38.40
79055;DHT22;68452;47.186;-1.528;2023-04-25T14:54:55;17.00;38.60
79055;DHT22;68452;47.186;-1.528;2023-04-25T14:57:21;16.90;39.20
79055;DHT22;68452;47.186;-1.528;2023-04-25T14:59:47;17.00;40.00
79055;DHT22;68452;47.186;-1.528;2023-04-25T15:02:13;17.00;39.70
79055;DHT22;68452;47.186;-1.528;2023-04-25T15:04:40;17.00;39.70
79055;DHT22;68452;47.186;-1.528;2023-04-25T15:07:06;17.00;39.50
79055;DHT22;68452;47.186;-1.528;2023-04-25T15:09:32;16.90;38.50
79055;DHT22;68452;47.186;-1.528;2023-04-25T15:11:58;16.80;39.10
79055;DHT22;68452;47.186;-1.528;2023-04-25T15:14:25;16.70;39.30
79055;DHT22;68452;47.186;-1.528;2023-04-25T15:16:51;16.70;39.60
79055;DHT22;68452;47.186;-1.528;2023-04-25T15:19:17;16.60;40.30
79055;DHT22;68452;47.186;-1.528;2023-04-25T15:21:43;16.60;40.10
79055;DHT22;68452;47.186;-1.528;2023-04-25T15:24:09;16.60;40.10
79055;DHT22;68452;47.186;-1.528;2023-04-25T15:26:36;16.60;40.00
79055;DHT22;68452;47.186;-1.528;2023-04-25T15:29:02;16.60;40.90